createdAt,value
2022-11-13T00:01:50.953Z,0
2022-11-13T00:11:28.043Z,0
2022-11-13T00:21:03.974Z,0
2022-11-13T00:30:40.625Z,0
2022-11-13T00:40:17.427Z,0
2022-11-13T00:49:54.075Z,0
2022-11-13T00:59:30.218Z,0
2022-11-13T01:18:44.277Z,0
2022-11-13T01:47:34.718Z,0
2022-11-13T01:57:11.304Z,0
2022-11-13T02:06:48.135Z,0
2022-11-13T02:16:24.881Z,0
2022-11-13T02:26:01.790Z,0
2022-11-13T02:35:38.525Z,0
2022-11-13T02:54:51.350Z,0
2022-11-13T03:04:38.526Z,0
2022-11-13T03:14:04.542Z,0
2022-11-13T03:23:41.218Z,0
2022-11-13T03:33:17.538Z,0
2022-11-13T03:42:53.946Z,0
2022-11-13T03:52:30.883Z,0
2022-11-13T04:02:07.465Z,0
2022-11-13T04:11:43.716Z,0
2022-11-13T04:21:20.702Z,0
2022-11-13T04:30:57.116Z,0
2022-11-13T04:40:34.064Z,0
2022-11-13T04:50:10.551Z,0
2022-11-13T05:09:24.094Z,0
2022-11-13T05:28:37.324Z,0
2022-11-13T05:38:14.001Z,0.83
2022-11-13T05:47:50.702Z,0
2022-11-13T05:57:27.318Z,0.83
2022-11-13T06:07:03.684Z,4.17
2022-11-13T06:16:40.519Z,15
2022-11-13T06:26:16.840Z,34.17
2022-11-13T06:35:53.853Z,66.67
2022-11-13T06:45:30.774Z,109.17
2022-11-13T06:55:06.641Z,158.33
2022-11-13T07:14:20.088Z,304.17
2022-11-13T07:23:56.599Z,383.33
2022-11-13T07:33:33.624Z,474.17
2022-11-13T07:43:10.916Z,584.17
2022-11-13T07:52:47.700Z,625.83
2022-11-13T08:02:26.614Z,745.83
2022-11-13T08:12:01.682Z,812.5
2022-11-13T08:21:38.338Z,1201.67
2022-11-13T08:31:15.894Z,1560
2022-11-13T08:40:53.131Z,1665.83
2022-11-13T08:50:30.770Z,2103.33
2022-11-13T09:00:07.599Z,1768.33
2022-11-13T09:09:45.568Z,1605.83
2022-11-13T09:19:21.630Z,1349.17
2022-11-13T09:28:57.922Z,1396.67
2022-11-13T09:38:34.482Z,2076.67
2022-11-13T09:48:12.379Z,1713.33
2022-11-13T10:07:26.929Z,2823.33
2022-11-13T10:17:05.577Z,3096.67
2022-11-13T10:26:43.431Z,3097.5
2022-11-13T10:36:20.982Z,3600.83
2022-11-13T10:45:59.098Z,3430.83
2022-11-13T10:55:36.408Z,3865
2022-11-13T11:14:52.158Z,5235
2022-11-13T11:34:09.067Z,7540
2022-11-13T11:43:47.575Z,6565
2022-11-13T11:53:25.389Z,6773.33
2022-11-13T12:12:40.051Z,6640
2022-11-13T12:22:13.446Z,9355.83
2022-11-13T12:51:05.562Z,13002.5
2022-11-13T13:01:12.348Z,42106.66
2022-11-13T13:20:38.673Z,40315
2022-11-13T13:30:17.149Z,32515.83
2022-11-13T13:39:49.463Z,26453.33
2022-11-13T13:49:21.178Z,16339.17
2022-11-13T13:58:48.027Z,8044.17
2022-11-13T14:08:13.640Z,930.83
2022-11-13T14:27:16.182Z,395.83
2022-11-13T14:36:51.018Z,275.83
2022-11-13T14:46:26.252Z,240
2022-11-13T14:56:02.631Z,169.17
2022-11-13T15:05:38.126Z,130
2022-11-13T15:15:14.756Z,80.83
2022-11-13T15:24:50.636Z,44.17
2022-11-13T15:34:27.219Z,23.33
2022-11-13T15:44:03.443Z,9.17
2022-11-13T15:53:39.337Z,2.5
2022-11-13T16:03:15.755Z,0.83
2022-11-13T16:12:52.471Z,0
2022-11-13T16:22:28.658Z,0
2022-11-13T16:41:41.249Z,0
2022-11-13T16:51:18.187Z,0
2022-11-13T17:00:58.949Z,0
2022-11-13T17:20:08.554Z,0
2022-11-13T17:29:45.044Z,0
2022-11-13T17:39:21.762Z,0
2022-11-13T17:48:58.263Z,0
2022-11-13T17:58:34.757Z,0
2022-11-13T18:08:11.548Z,0
2022-11-13T18:27:24.840Z,0
2022-11-13T18:46:38.558Z,0
2022-11-13T18:56:15.369Z,0
2022-11-13T19:05:52.452Z,0
2022-11-13T19:15:29.249Z,0
2022-11-13T19:25:05.842Z,0
2022-11-13T19:34:46.375Z,0
2022-11-13T19:44:19.816Z,0
2022-11-13T19:53:56.680Z,0
2022-11-13T20:03:32.971Z,0
2022-11-13T20:22:46.051Z,0
2022-11-13T20:32:23.135Z,0
2022-11-13T20:41:59.916Z,0
2022-11-13T20:51:36.518Z,0
2022-11-13T21:01:13.027Z,0
2022-11-13T21:10:49.985Z,0
2022-11-13T21:20:26.609Z,0
2022-11-13T21:30:03.325Z,0
2022-11-13T21:39:39.824Z,0
2022-11-13T21:49:16.872Z,0
2022-11-13T22:08:30.991Z,0
2022-11-13T22:18:07.136Z,0
2022-11-13T22:27:44.010Z,0
2022-11-13T22:37:20.790Z,0
2022-11-13T22:56:34.209Z,0
2022-11-13T23:06:11.045Z,0
2022-11-13T23:25:24.391Z,0
2022-11-13T23:35:01.064Z,0
2022-11-13T23:44:37.665Z,0
2022-11-13T23:54:14.335Z,0
